sensor_id;sensor_type;location;lat;lon;timestamp;temperature;humidity
10443;DHT22;5269;51.146;16.986;2024-01-30T00:01:18;0.70;99.90
10443;DHT22;5269;51.146;16.986;2024-01-30T00:03:47;0.60;99.90
10443;DHT22;5269;51.146;16.986;2024-01-30T00:06:18;0.50;99.90
10443;DHT22;5269;51.146;16.986;2024-01-30T00:08:51;0.50;99.90
10443;DHT22;5269;51.146;16.986;2024-01-30T00:11:20;0.50;99.90
10443;DHT22;5269;51.146;16.986;2024-01-30T00:13:49;0.40;99.90
10443;DHT22;5269;51.146;16.986;2024-01-30T00:16:26;0.40;1.00
10443;DHT22;5269;51.146;16.986;2024-01-30T00:18:54;0.40;1.00
10443;DHT22;5269;51.146;16.986;2024-01-30T00:21:21;0.20;99.90
10443;DHT22;5269;51.146;16.986;2024-01-30T00:23:48;0.40;1.00
10443;DHT22;5269;51.146;16.986;2024-01-30T00:26:15;0.40;1.00
10443;DHT22;5269;51.146;16.986;2024-01-30T00:28:43;0.50;1.00
10443;DHT22;5269;51.146;16.986;2024-01-30T00:31:10;0.40;1.00
10443;DHT22;5269;51.146;16.986;2024-01-30T00:33:38;0.50;1.00
10443;DHT22;5269;51.146;16.986;2024-01-30T00:36:05;0.40;1.00
10443;DHT22;5269;51.146;16.986;2024-01-30T00:38:33;0.30;1.00
10443;DHT22;5269;51.146;16.986;2024-01-30T00:41:01;0.10;1.00
10443;DHT22;5269;51.146;16.986;2024-01-30T00:43:29;0.10;1.00
10443;DHT22;5269;51.146;16.986;2024-01-30T00:45:58;0.10;1.00
10443;DHT22;5269;51.146;16.986;2024-01-30T00:48:25;0.20;99.90
10443;DHT22;5269;51.146;16.986;2024-01-30T00:50:52;0.10;99.90
10443;DHT22;5269;51.146;16.986;2024-01-30T00:53:21;0.10;1.00
10443;DHT22;5269;51.146;16.986;2024-01-30T00:55:48;0.10;57.50
10443;DHT22;5269;51.146;16.986;2024-01-30T00:58:14;0.10;1.00
10443;DHT22;5269;51.146;16.986;2024-01-30T01:00:41;0.10;99.90
10443;DHT22;5269;51.146;16.986;2024-01-30T01:03:10;0.10;99.90
10443;DHT22;5269;51.146;16.986;2024-01-30T01:05:37;0.20;1.00
10443;DHT22;5269;51.146;16.986;2024-01-30T01:08:06;0.10;99.90
10443;DHT22;5269;51.146;16.986;2024-01-30T01:10:34;0.20;99.90
10443;DHT22;5269;51.146;16.986;2024-01-30T01:13:01;0.20;99.90
10443;DHT22;5269;51.146;16.986;2024-01-30T01:15:28;0.20;1.00
10443;DHT22;5269;51.146;16.986;2024-01-30T01:17:55;0.00;1.00
10443;DHT22;5269;51.146;16.986;2024-01-30T01:20:25;-0.10;1.00
10443;DHT22;5269;51.146;16.986;2024-01-30T01:22:52;-0.10;1.00
10443;DHT22;5269;51.146;16.986;2024-01-30T01:25:20;-0.20;7.60
10443;DHT22;5269;51.146;16.986;2024-01-30T01:27:47;-0.20;99.90
10443;DHT22;5269;51.146;16.986;2024-01-30T01:30:17;-0.20;99.90
10443;DHT22;5269;51.146;16.986;2024-01-30T01:32:49;-0.40;99.90
10443;DHT22;5269;51.146;16.986;2024-01-30T01:35:21;-0.60;99.90
10443;DHT22;5269;51.146;16.986;2024-01-30T01:37:49;-0.50;1.00
10443;DHT22;5269;51.146;16.986;2024-01-30T01:40:21;-0.60;1.00
10443;DHT22;5269;51.146;16.986;2024-01-30T01:42:49;-0.60;28.10
10443;DHT22;5269;51.146;16.986;2024-01-30T01:45:18;-0.60;1.00
10443;DHT22;5269;51.146;16.986;2024-01-30T01:47:47;-0.40;1.00
10443;DHT22;5269;51.146;16.986;2024-01-30T01:50:16;-0.30;99.00
10443;DHT22;5269;51.146;16.986;2024-01-30T01:52:44;-0.40;1.00
10443;DHT22;5269;51.146;16.986;2024-01-30T01:55:13;-0.20;94.90
10443;DHT22;5269;51.146;16.986;2024-01-30T01:57:41;-0.10;1.00
10443;DHT22;5269;51.146;16.986;2024-01-30T02:00:09;0.00;1.00
10443;DHT22;5269;51.146;16.986;2024-01-30T02:02:44;-0.10;99.90
10443;DHT22;5269;51.146;16.986;2024-01-30T02:05:12;-0.10;99.90
10443;DHT22;5269;51.146;16.986;2024-01-30T02:07:39;-0.10;1.00
10443;DHT22;5269;51.146;16.986;2024-01-30T02:10:08;-0.10;1.00
10443;DHT22;5269;51.146;16.986;2024-01-30T02:12:36;-0.10;99.90
10443;DHT22;5269;51.146;16.986;2024-01-30T02:15:04;-0.20;1.00
10443;DHT22;5269;51.146;16.986;2024-01-30T02:17:33;-0.10;1.00
10443;DHT22;5269;51.146;16.986;2024-01-30T02:20:01;0.00;99.90
10443;DHT22;5269;51.146;16.986;2024-01-30T02:22:31;-0.20;99.90
10443;DHT22;5269;51.146;16.986;2024-01-30T02:24:59;-0.20;99.90
10443;DHT22;5269;51.146;16.986;2024-01-30T02:27:28;-0.30;99.90
10443;DHT22;5269;51.146;16.986;2024-01-30T02:29:55;-0.30;99.90
10443;DHT22;5269;51.146;16.986;2024-01-30T02:32:27;-0.30;99.90
10443;DHT22;5269;51.146;16.986;2024-01-30T02:34:54;-0.20;1.00
10443;DHT22;5269;51.146;16.986;2024-01-30T02:37:21;-0.40;99.90
10443;DHT22;5269;51.146;16.986;2024-01-30T02:39:49;-0.40;99.90
10443;DHT22;5269;51.146;16.986;2024-01-30T02:42:16;-0.50;99.90
10443;DHT22;5269;51.146;16.986;2024-01-30T02:44:43;-0.40;1.00
10443;DHT22;5269;51.146;16.986;2024-01-30T02:47:10;-0.40;1.00
10443;DHT22;5269;51.146;16.986;2024-01-30T02:49:37;-0.30;1.00
10443;DHT22;5269;51.146;16.986;2024-01-30T02:52:04;-0.50;1.00
10443;DHT22;5269;51.146;16.986;2024-01-30T02:54:31;-0.40;1.00
10443;DHT22;5269;51.146;16.986;2024-01-30T02:56:59;-0.30;1.00
10443;DHT22;5269;51.146;16.986;2024-01-30T02:59:28;-0.30;1.00
10443;DHT22;5269;51.146;16.986;2024-01-30T03:01:57;-0.30;99.90
10443;DHT22;5269;51.146;16.986;2024-01-30T03:04:24;-0.30;1.00
10443;DHT22;5269;51.146;16.986;2024-01-30T03:06:51;-0.40;99.90
10443;DHT22;5269;51.146;16.986;2024-01-30T03:09:18;-0.40;99.90
10443;DHT22;5269;51.146;16.986;2024-01-30T03:11:45;-0.70;99.90
10443;DHT22;5269;51.146;16.986;2024-01-30T03:14:14;-0.80;1.00
10443;DHT22;5269;51.146;16.986;2024-01-30T03:16:40;-0.80;99.90
10443;DHT22;5269;51.146;16.986;2024-01-30T03:19:07;-0.70;1.00
10443;DHT22;5269;51.146;16.986;2024-01-30T03:21:35;-0.70;99.90
10443;DHT22;5269;51.146;16.986;2024-01-30T03:24:02;-0.70;53.60
10443;DHT22;5269;51.146;16.986;2024-01-30T03:26:29;-0.70;99.90
10443;DHT22;5269;51.146;16.986;2024-01-30T03:28:56;-0.50;1.00
10443;DHT22;5269;51.146;16.986;2024-01-30T03:31:24;-0.60;1.00
10443;DHT22;5269;51.146;16.986;2024-01-30T03:33:51;-0.50;99.90
10443;DHT22;5269;51.146;16.986;2024-01-30T03:36:18;-0.50;1.00
10443;DHT22;5269;51.146;16.986;2024-01-30T03:38:45;-0.60;99.90
10443;DHT22;5269;51.146;16.986;2024-01-30T03:41:12;-0.70;93.50
10443;DHT22;5269;51.146;16.986;2024-01-30T03:43:39;-0.60;1.00
10443;DHT22;5269;51.146;16.986;2024-01-30T03:46:07;-0.80;99.90
10443;DHT22;5269;51.146;16.986;2024-01-30T03:48:36;-0.70;1.00
10443;DHT22;5269;51.146;16.986;2024-01-30T03:51:04;-0.70;99.90
10443;DHT22;5269;51.146;16.986;2024-01-30T03:53:33;-0.70;99.90
10443;DHT22;5269;51.146;16.986;2024-01-30T03:56:01;-0.80;99.90
10443;DHT22;5269;51.146;16.986;2024-01-30T03:58:28;-0.90;1.00
10443;DHT22;5269;51.146;16.986;2024-01-30T04:00:55;-0.80;99.90
10443;DHT22;5269;51.146;16.986;2024-01-30T04:03:22;-0.90;1.00
10443;DHT22;5269;51.146;16.986;2024-01-30T04:05:52;-0.80;99.90
10443;DHT22;5269;51.146;16.986;2024-01-30T04:08:19;-0.80;1.00
10443;DHT22;5269;51.146;16.986;2024-01-30T04:10:46;-0.70;99.90
10443;DHT22;5269;51.146;16.986;2024-01-30T04:13:13;-0.70;99.90
10443;DHT22;5269;51.146;16.986;2024-01-30T04:15:40;-0.70;1.00
10443;DHT22;5269;51.146;16.986;2024-01-30T04:18:07;-0.80;1.00
10443;DHT22;5269;51.146;16.986;2024-01-30T04:20:34;-0.90;1.00
10443;DHT22;5269;51.146;16.986;2024-01-30T04:23:03;-1.10;1.00
10443;DHT22;5269;51.146;16.986;2024-01-30T04:25:31;-1.10;47.90
10443;DHT22;5269;51.146;16.986;2024-01-30T04:27:58;-1.10;1.00
10443;DHT22;5269;51.146;16.986;2024-01-30T04:30:25;-1.10;99.90
10443;DHT22;5269;51.146;16.986;2024-01-30T04:32:52;-1.10;99.90
10443;DHT22;5269;51.146;16.986;2024-01-30T04:35:19;-1.10;1.00
10443;DHT22;5269;51.146;16.986;2024-01-30T04:37:49;-1.00;1.00
10443;DHT22;5269;51.146;16.986;2024-01-30T04:40:17;-1.00;99.90
10443;DHT22;5269;51.146;16.986;2024-01-30T04:42:44;-1.00;41.20
10443;DHT22;5269;51.146;16.986;2024-01-30T04:45:12;-1.00;1.00
10443;DHT22;5269;51.146;16.986;2024-01-30T04:47:38;-1.00;1.00
10443;DHT22;5269;51.146;16.986;2024-01-30T04:50:07;-1.00;99.90
10443;DHT22;5269;51.146;16.986;2024-01-30T04:52:36;-1.20;75.60
10443;DHT22;5269;51.146;16.986;2024-01-30T04:55:03;-1.30;99.90
10443;DHT22;5269;51.146;16.986;2024-01-30T04:57:31;-1.20;1.00
10443;DHT22;5269;51.146;16.986;2024-01-30T04:59:59;-1.30;1.00
10443;DHT22;5269;51.146;16.986;2024-01-30T05:02:27;-1.40;99.90
10443;DHT22;5269;51.146;16.986;2024-01-30T05:05:02;-1.40;1.00
10443;DHT22;5269;51.146;16.986;2024-01-30T05:07:29;-1.40;99.90
10443;DHT22;5269;51.146;16.986;2024-01-30T05:09:58;-1.40;1.00
10443;DHT22;5269;51.146;16.986;2024-01-30T05:12:25;-1.40;1.00
10443;DHT22;5269;51.146;16.986;2024-01-30T05:14:54;-1.40;1.00
10443;DHT22;5269;51.146;16.986;2024-01-30T05:17:20;-1.50;1.00
10443;DHT22;5269;51.146;16.986;2024-01-30T05:19:47;-1.40;1.00
10443;DHT22;5269;51.146;16.986;2024-01-30T05:22:14;-1.30;1.00
10443;DHT22;5269;51.146;16.986;2024-01-30T05:24:43;-1.40;1.00
10443;DHT22;5269;51.146;16.986;2024-01-30T05:27:10;-1.50;78.70
10443;DHT22;5269;51.146;16.986;2024-01-30T05:29:39;-1.60;99.90
10443;DHT22;5269;51.146;16.986;2024-01-30T05:32:07;-1.50;99.90
10443;DHT22;5269;51.146;16.986;2024-01-30T05:34:35;-1.50;99.90
10443;DHT22;5269;51.146;16.986;2024-01-30T05:37:02;-1.60;99.90
10443;DHT22;5269;51.146;16.986;2024-01-30T05:39:29;-1.60;99.90
10443;DHT22;5269;51.146;16.986;2024-01-30T05:42:00;-1.70;99.90
10443;DHT22;5269;51.146;16.986;2024-01-30T05:44:27;-1.70;99.90
10443;DHT22;5269;51.146;16.986;2024-01-30T05:46:54;-1.60;99.90
10443;DHT22;5269;51.146;16.986;2024-01-30T05:49:22;-1.70;99.90
10443;DHT22;5269;51.146;16.986;2024-01-30T05:51:49;-1.70;99.90
10443;DHT22;5269;51.146;16.986;2024-01-30T05:54:16;-1.80;99.90
10443;DHT22;5269;51.146;16.986;2024-01-30T05:56:43;-1.80;99.90
10443;DHT22;5269;51.146;16.986;2024-01-30T05:59:10;-1.80;99.90
10443;DHT22;5269;51.146;16.986;2024-01-30T06:01:44;-1.80;99.90
10443;DHT22;5269;51.146;16.986;2024-01-30T06:04:11;-1.90;99.90
10443;DHT22;5269;51.146;16.986;2024-01-30T06:06:40;-2.00;99.90
10443;DHT22;5269;51.146;16.986;2024-01-30T06:09:06;-1.90;99.90
10443;DHT22;5269;51.146;16.986;2024-01-30T06:11:37;-1.80;99.90
10443;DHT22;5269;51.146;16.986;2024-01-30T06:14:11;-1.90;99.90
10443;DHT22;5269;51.146;16.986;2024-01-30T06:16:38;-1.80;99.90
10443;DHT22;5269;51.146;16.986;2024-01-30T06:19:05;-1.70;99.90
10443;DHT22;5269;51.146;16.986;2024-01-30T06:21:32;-1.60;99.90
10443;DHT22;5269;51.146;16.986;2024-01-30T06:24:03;-1.70;99.90
10443;DHT22;5269;51.146;16.986;2024-01-30T06:26:32;-1.60;99.90
10443;DHT22;5269;51.146;16.986;2024-01-30T06:28:58;-1.70;99.90
10443;DHT22;5269;51.146;16.986;2024-01-30T06:31:27;-1.70;99.90
10443;DHT22;5269;51.146;16.986;2024-01-30T06:33:57;-1.60;99.90
10443;DHT22;5269;51.146;16.986;2024-01-30T06:36:32;-1.70;99.90
10443;DHT22;5269;51.146;16.986;2024-01-30T06:38:59;-1.70;99.90
10443;DHT22;5269;51.146;16.986;2024-01-30T06:41:30;-1.70;99.90
10443;DHT22;5269;51.146;16.986;2024-01-30T06:43:57;-1.60;99.90
10443;DHT22;5269;51.146;16.986;2024-01-30T06:46:24;-1.50;99.90
10443;DHT22;5269;51.146;16.986;2024-01-30T06:48:53;-1.50;99.90
10443;DHT22;5269;51.146;16.986;2024-01-30T06:51:20;-1.50;99.90
10443;DHT22;5269;51.146;16.986;2024-01-30T06:53:48;-1.50;99.90
10443;DHT22;5269;51.146;16.986;2024-01-30T06:56:16;-1.50;99.90
10443;DHT22;5269;51.146;16.986;2024-01-30T06:58:50;-1.50;99.90
10443;DHT22;5269;51.146;16.986;2024-01-30T07:01:19;-1.40;99.90
10443;DHT22;5269;51.146;16.986;2024-01-30T07:03:47;-1.40;99.90
10443;DHT22;5269;51.146;16.986;2024-01-30T07:06:14;-1.40;99.90
10443;DHT22;5269;51.146;16.986;2024-01-30T07:08:43;-1.30;99.90
10443;DHT22;5269;51.146;16.986;2024-01-30T07:11:10;-1.20;99.90
10443;DHT22;5269;51.146;16.986;2024-01-30T07:13:39;-1.10;99.90
10443;DHT22;5269;51.146;16.986;2024-01-30T07:16:09;-1.00;99.90
10443;DHT22;5269;51.146;16.986;2024-01-30T07:18:37;-0.90;99.90
10443;DHT22;5269;51.146;16.986;2024-01-30T07:21:04;-0.80;99.90
10443;DHT22;5269;51.146;16.986;2024-01-30T07:23:31;-0.70;99.90
10443;DHT22;5269;51.146;16.986;2024-01-30T07:25:59;-0.70;99.90
10443;DHT22;5269;51.146;16.986;2024-01-30T07:28:26;-0.50;99.90
10443;DHT22;5269;51.146;16.986;2024-01-30T07:31:00;-0.40;99.90
10443;DHT22;5269;51.146;16.986;2024-01-30T07:33:31;-0.30;99.90
10443;DHT22;5269;51.146;16.986;2024-01-30T07:36:00;-0.20;99.90
10443;DHT22;5269;51.146;16.986;2024-01-30T07:38:27;-0.10;99.90
10443;DHT22;5269;51.146;16.986;2024-01-30T07:40:54;0.10;99.90
10443;DHT22;5269;51.146;16.986;2024-01-30T07:43:31;0.20;99.90
10443;DHT22;5269;51.146;16.986;2024-01-30T07:49:21;0.40;99.90
10443;DHT22;5269;51.146;16.986;2024-01-30T07:51:48;0.70;99.90
10443;DHT22;5269;51.146;16.986;2024-01-30T07:54:15;0.80;99.90
10443;DHT22;5269;51.146;16.986;2024-01-30T07:56:43;0.90;99.90
10443;DHT22;5269;51.146;16.986;2024-01-30T07:59:10;1.00;99.90
10443;DHT22;5269;51.146;16.986;2024-01-30T08:01:38;1.00;99.90
10443;DHT22;5269;51.146;16.986;2024-01-30T08:04:05;1.10;99.90
10443;DHT22;5269;51.146;16.986;2024-01-30T08:06:34;1.20;99.90
10443;DHT22;5269;51.146;16.986;2024-01-30T08:09:01;1.40;99.90
10443;DHT22;5269;51.146;16.986;2024-01-30T08:15:04;1.70;1.00
10443;DHT22;5269;51.146;16.986;2024-01-30T08:17:31;1.80;1.00
10443;DHT22;5269;51.146;16.986;2024-01-30T08:19:58;2.00;1.00
10443;DHT22;5269;51.146;16.986;2024-01-30T08:22:26;2.00;99.90
10443;DHT22;5269;51.146;16.986;2024-01-30T08:24:53;2.10;99.90
10443;DHT22;5269;51.146;16.986;2024-01-30T08:27:20;2.30;99.90
10443;DHT22;5269;51.146;16.986;2024-01-30T08:29:47;2.40;99.90
10443;DHT22;5269;51.146;16.986;2024-01-30T08:32:17;2.60;99.90
10443;DHT22;5269;51.146;16.986;2024-01-30T08:34:44;2.80;1.00
10443;DHT22;5269;51.146;16.986;2024-01-30T08:37:11;3.00;99.90
10443;DHT22;5269;51.146;16.986;2024-01-30T08:39:40;3.10;1.00
10443;DHT22;5269;51.146;16.986;2024-01-30T08:42:07;3.10;1.00
10443;DHT22;5269;51.146;16.986;2024-01-30T08:44:40;3.30;99.90
10443;DHT22;5269;51.146;16.986;2024-01-30T08:47:07;3.40;99.90
10443;DHT22;5269;51.146;16.986;2024-01-30T08:49:34;3.60;99.90
10443;DHT22;5269;51.146;16.986;2024-01-30T08:52:01;3.80;1.00
10443;DHT22;5269;51.146;16.986;2024-01-30T08:54:30;3.90;7.50
10443;DHT22;5269;51.146;16.986;2024-01-30T08:57:01;4.10;99.90
10443;DHT22;5269;51.146;16.986;2024-01-30T08:59:28;4.20;1.00
10443;DHT22;5269;51.146;16.986;2024-01-30T09:01:54;4.40;99.90
10443;DHT22;5269;51.146;16.986;2024-01-30T09:04:23;4.60;1.00
10443;DHT22;5269;51.146;16.986;2024-01-30T09:06:50;4.80;1.00
10443;DHT22;5269;51.146;16.986;2024-01-30T09:09:17;4.80;1.00
10443;DHT22;5269;51.146;16.986;2024-01-30T09:11:44;5.00;1.00
10443;DHT22;5269;51.146;16.986;2024-01-30T09:14:13;5.20;99.90
10443;DHT22;5269;51.146;16.986;2024-01-30T09:16:39;5.30;99.90
10443;DHT22;5269;51.146;16.986;2024-01-30T09:19:06;5.40;99.90
10443;DHT22;5269;51.146;16.986;2024-01-30T09:21:33;5.50;99.90
10443;DHT22;5269;51.146;16.986;2024-01-30T09:24:02;5.60;1.00
10443;DHT22;5269;51.146;16.986;2024-01-30T09:26:29;5.70;1.00
10443;DHT22;5269;51.146;16.986;2024-01-30T09:28:56;5.90;1.00
10443;DHT22;5269;51.146;16.986;2024-01-30T09:31:29;5.90;1.00
10443;DHT22;5269;51.146;16.986;2024-01-30T09:33:56;6.10;1.00
10443;DHT22;5269;51.146;16.986;2024-01-30T09:36:25;6.10;1.00
10443;DHT22;5269;51.146;16.986;2024-01-30T09:38:53;6.30;1.00
10443;DHT22;5269;51.146;16.986;2024-01-30T09:41:20;6.30;1.00
10443;DHT22;5269;51.146;16.986;2024-01-30T09:43:50;6.40;99.90
10443;DHT22;5269;51.146;16.986;2024-01-30T09:46:18;6.40;99.90
10443;DHT22;5269;51.146;16.986;2024-01-30T09:48:48;6.50;99.90
10443;DHT22;5269;51.146;16.986;2024-01-30T09:51:16;6.60;99.90
10443;DHT22;5269;51.146;16.986;2024-01-30T09:53:44;6.60;99.90
10443;DHT22;5269;51.146;16.986;2024-01-30T09:56:12;6.70;99.90
10443;DHT22;5269;51.146;16.986;2024-01-30T09:58:41;6.80;99.90
10443;DHT22;5269;51.146;16.986;2024-01-30T10:01:08;6.80;99.90
10443;DHT22;5269;51.146;16.986;2024-01-30T10:03:39;6.90;79.30
10443;DHT22;5269;51.146;16.986;2024-01-30T10:06:10;7.00;84.80
10443;DHT22;5269;51.146;16.986;2024-01-30T10:08:39;7.20;87.90
10443;DHT22;5269;51.146;16.986;2024-01-30T10:11:06;7.20;1.00
10443;DHT22;5269;51.146;16.986;2024-01-30T10:13:34;7.30;1.00
10443;DHT22;5269;51.146;16.986;2024-01-30T10:16:06;7.40;1.00
10443;DHT22;5269;51.146;16.986;2024-01-30T10:18:33;7.40;1.00
10443;DHT22;5269;51.146;16.986;2024-01-30T10:21:00;7.60;1.00
10443;DHT22;5269;51.146;16.986;2024-01-30T10:23:31;7.60;1.00
10443;DHT22;5269;51.146;16.986;2024-01-30T10:25:58;7.70;1.00
10443;DHT22;5269;51.146;16.986;2024-01-30T10:28:27;7.80;1.00
10443;DHT22;5269;51.146;16.986;2024-01-30T10:30:58;7.90;1.00
10443;DHT22;5269;51.146;16.986;2024-01-30T10:33:26;8.00;1.00
10443;DHT22;5269;51.146;16.986;2024-01-30T10:35:59;8.00;1.00
10443;DHT22;5269;51.146;16.986;2024-01-30T10:38:30;8.10;1.00
10443;DHT22;5269;51.146;16.986;2024-01-30T10:41:01;8.20;1.00
10443;DHT22;5269;51.146;16.986;2024-01-30T10:43:31;8.20;1.00
10443;DHT22;5269;51.146;16.986;2024-01-30T10:46:05;8.30;1.00
10443;DHT22;5269;51.146;16.986;2024-01-30T10:48:41;8.40;1.00
10443;DHT22;5269;51.146;16.986;2024-01-30T10:51:11;8.50;1.00
10443;DHT22;5269;51.146;16.986;2024-01-30T10:53:41;8.60;1.00
10443;DHT22;5269;51.146;16.986;2024-01-30T10:56:10;8.60;1.00
10443;DHT22;5269;51.146;16.986;2024-01-30T10:58:40;8.70;1.00
10443;DHT22;5269;51.146;16.986;2024-01-30T11:01:08;8.90;1.00
10443;DHT22;5269;51.146;16.986;2024-01-30T11:03:36;8.80;1.00
10443;DHT22;5269;51.146;16.986;2024-01-30T11:06:10;8.90;1.00
10443;DHT22;5269;51.146;16.986;2024-01-30T11:08:41;8.80;1.00
10443;DHT22;5269;51.146;16.986;2024-01-30T11:11:09;8.80;1.00
10443;DHT22;5269;51.146;16.986;2024-01-30T11:13:37;9.00;1.00
10443;DHT22;5269;51.146;16.986;2024-01-30T11:16:08;9.00;1.00
10443;DHT22;5269;51.146;16.986;2024-01-30T11:18:50;9.10;1.00
10443;DHT22;5269;51.146;16.986;2024-01-30T11:21:20;9.20;1.00
10443;DHT22;5269;51.146;16.986;2024-01-30T11:23:51;9.30;1.00
10443;DHT22;5269;51.146;16.986;2024-01-30T11:26:18;9.40;1.00
10443;DHT22;5269;51.146;16.986;2024-01-30T11:28:52;9.40;1.00
10443;DHT22;5269;51.146;16.986;2024-01-30T11:31:19;9.40;1.00
10443;DHT22;5269;51.146;16.986;2024-01-30T11:33:52;9.40;1.00
10443;DHT22;5269;51.146;16.986;2024-01-30T11:36:24;9.40;1.00
10443;DHT22;5269;51.146;16.986;2024-01-30T11:39:01;9.50;1.00
10443;DHT22;5269;51.146;16.986;2024-01-30T11:41:30;9.60;1.00
10443;DHT22;5269;51.146;16.986;2024-01-30T11:43:57;9.70;1.00
10443;DHT22;5269;51.146;16.986;2024-01-30T11:46:25;9.80;1.00
10443;DHT22;5269;51.146;16.986;2024-01-30T11:48:52;10.00;1.00
10443;DHT22;5269;51.146;16.986;2024-01-30T11:51:19;10.10;1.00
10443;DHT22;5269;51.146;16.986;2024-01-30T11:53:49;9.90;1.00
10443;DHT22;5269;51.146;16.986;2024-01-30T11:56:21;9.70;1.00
10443;DHT22;5269;51.146;16.986;2024-01-30T11:58:49;9.60;1.00
10443;DHT22;5269;51.146;16.986;2024-01-30T12:01:17;9.40;1.00
10443;DHT22;5269;51.146;16.986;2024-01-30T12:03:51;9.40;1.00
10443;DHT22;5269;51.146;16.986;2024-01-30T12:06:20;9.50;1.00
10443;DHT22;5269;51.146;16.986;2024-01-30T12:08:59;9.50;1.00
10443;DHT22;5269;51.146;16.986;2024-01-30T12:11:28;9.50;1.00
10443;DHT22;5269;51.146;16.986;2024-01-30T12:13:56;9.40;1.00
10443;DHT22;5269;51.146;16.986;2024-01-30T12:16:33;9.40;1.00
10443;DHT22;5269;51.146;16.986;2024-01-30T12:19:01;9.60;1.00
10443;DHT22;5269;51.146;16.986;2024-01-30T12:21:38;9.50;1.00
10443;DHT22;5269;51.146;16.986;2024-01-30T12:24:05;9.60;1.00
10443;DHT22;5269;51.146;16.986;2024-01-30T12:26:40;9.60;1.00
10443;DHT22;5269;51.146;16.986;2024-01-30T12:29:20;9.70;1.00
10443;DHT22;5269;51.146;16.986;2024-01-30T12:31:48;9.70;1.00
10443;DHT22;5269;51.146;16.986;2024-01-30T12:34:17;10.00;1.00
10443;DHT22;5269;51.146;16.986;2024-01-30T12:36:48;10.00;1.00
10443;DHT22;5269;51.146;16.986;2024-01-30T12:39:16;10.10;1.00
10443;DHT22;5269;51.146;16.986;2024-01-30T12:41:45;10.10;1.00
10443;DHT22;5269;51.146;16.986;2024-01-30T12:44:16;9.90;1.00
10443;DHT22;5269;51.146;16.986;2024-01-30T12:46:44;9.80;1.00
10443;DHT22;5269;51.146;16.986;2024-01-30T12:49:11;9.70;1.00
10443;DHT22;5269;51.146;16.986;2024-01-30T12:51:43;9.70;1.00
10443;DHT22;5269;51.146;16.986;2024-01-30T12:54:13;9.70;1.00
10443;DHT22;5269;51.146;16.986;2024-01-30T12:56:40;9.70;1.00
10443;DHT22;5269;51.146;16.986;2024-01-30T12:59:08;9.70;1.00
10443;DHT22;5269;51.146;16.986;2024-01-30T13:01:35;9.90;1.00
10443;DHT22;5269;51.146;16.986;2024-01-30T13:04:08;9.80;1.00
10443;DHT22;5269;51.146;16.986;2024-01-30T13:06:41;9.90;1.00
10443;DHT22;5269;51.146;16.986;2024-01-30T13:09:10;9.80;1.00
10443;DHT22;5269;51.146;16.986;2024-01-30T13:11:38;9.90;1.00
10443;DHT22;5269;51.146;16.986;2024-01-30T13:14:05;9.90;1.00
10443;DHT22;5269;51.146;16.986;2024-01-30T13:16:42;9.90;1.00
10443;DHT22;5269;51.146;16.986;2024-01-30T13:19:11;9.90;1.00
10443;DHT22;5269;51.146;16.986;2024-01-30T13:21:40;9.80;1.00
10443;DHT22;5269;51.146;16.986;2024-01-30T13:24:13;9.80;1.00
10443;DHT22;5269;51.146;16.986;2024-01-30T13:26:40;9.70;1.00
10443;DHT22;5269;51.146;16.986;2024-01-30T13:29:10;9.70;1.00
10443;DHT22;5269;51.146;16.986;2024-01-30T13:31:40;9.70;1.00
10443;DHT22;5269;51.146;16.986;2024-01-30T13:42:03;9.70;1.00
10443;DHT22;5269;51.146;16.986;2024-01-30T13:44:41;9.60;1.00
10443;DHT22;5269;51.146;16.986;2024-01-30T13:47:10;9.50;1.00
10443;DHT22;5269;51.146;16.986;2024-01-30T13:49:37;9.40;1.00
10443;DHT22;5269;51.146;16.986;2024-01-30T13:52:06;9.20;1.00
10443;DHT22;5269;51.146;16.986;2024-01-30T13:54:38;9.10;1.00
10443;DHT22;5269;51.146;16.986;2024-01-30T13:57:08;9.10;1.00
10443;DHT22;5269;51.146;16.986;2024-01-30T13:59:41;9.00;1.00
10443;DHT22;5269;51.146;16.986;2024-01-30T14:02:09;8.90;1.00
10443;DHT22;5269;51.146;16.986;2024-01-30T14:04:40;9.00;1.00
10443;DHT22;5269;51.146;16.986;2024-01-30T14:07:07;8.80;1.00
10443;DHT22;5269;51.146;16.986;2024-01-30T14:09:37;8.80;1.00
10443;DHT22;5269;51.146;16.986;2024-01-30T14:12:04;8.80;1.00
10443;DHT22;5269;51.146;16.986;2024-01-30T14:14:31;8.80;1.00
10443;DHT22;5269;51.146;16.986;2024-01-30T14:17:00;8.70;1.00
10443;DHT22;5269;51.146;16.986;2024-01-30T14:19:33;8.70;1.00
10443;DHT22;5269;51.146;16.986;2024-01-30T14:22:02;8.70;1.00
10443;DHT22;5269;51.146;16.986;2024-01-30T14:24:29;8.60;1.00
10443;DHT22;5269;51.146;16.986;2024-01-30T14:26:56;8.60;1.00
10443;DHT22;5269;51.146;16.986;2024-01-30T14:29:28;8.50;1.00
10443;DHT22;5269;51.146;16.986;2024-01-30T14:32:02;8.50;1.00
10443;DHT22;5269;51.146;16.986;2024-01-30T14:34:31;8.50;1.00
10443;DHT22;5269;51.146;16.986;2024-01-30T14:36:58;8.40;1.00
10443;DHT22;5269;51.146;16.986;2024-01-30T14:39:25;8.40;1.00
10443;DHT22;5269;51.146;16.986;2024-01-30T14:41:54;8.30;1.00
10443;DHT22;5269;51.146;16.986;2024-01-30T14:44:21;8.20;1.00
10443;DHT22;5269;51.146;16.986;2024-01-30T14:46:50;8.20;1.00
10443;DHT22;5269;51.146;16.986;2024-01-30T14:49:18;8.10;1.00
10443;DHT22;5269;51.146;16.986;2024-01-30T14:51:48;8.10;1.00
10443;DHT22;5269;51.146;16.986;2024-01-30T14:54:17;8.10;1.00
10443;DHT22;5269;51.146;16.986;2024-01-30T14:56:47;8.00;1.00
10443;DHT22;5269;51.146;16.986;2024-01-30T14:59:17;8.00;1.00
10443;DHT22;5269;51.146;16.986;2024-01-30T15:01:47;8.00;1.00
10443;DHT22;5269;51.146;16.986;2024-01-30T15:04:22;8.00;1.00
10443;DHT22;5269;51.146;16.986;2024-01-30T15:06:51;7.90;1.00
10443;DHT22;5269;51.146;16.986;2024-01-30T15:09:18;7.80;1.00
10443;DHT22;5269;51.146;16.986;2024-01-30T15:11:48;7.90;1.00
10443;DHT22;5269;51.146;16.986;2024-01-30T15:14:16;7.80;1.00
10443;DHT22;5269;51.146;16.986;2024-01-30T15:16:43;7.70;1.00
10443;DHT22;5269;51.146;16.986;2024-01-30T15:19:10;7.70;1.00
10443;DHT22;5269;51.146;16.986;2024-01-30T15:21:37;7.60;1.00
10443;DHT22;5269;51.146;16.986;2024-01-30T15:24:06;7.50;1.00
10443;DHT22;5269;51.146;16.986;2024-01-30T15:26:33;7.50;1.00
10443;DHT22;5269;51.146;16.986;2024-01-30T15:29:00;7.40;1.00
10443;DHT22;5269;51.146;16.986;2024-01-30T15:31:28;7.30;1.00
10443;DHT22;5269;51.146;16.986;2024-01-30T15:34:02;7.20;1.00
10443;DHT22;5269;51.146;16.986;2024-01-30T15:36:39;7.20;1.00
10443;DHT22;5269;51.146;16.986;2024-01-30T15:39:10;7.20;1.00
10443;DHT22;5269;51.146;16.986;2024-01-30T15:41:40;7.20;1.00
10443;DHT22;5269;51.146;16.986;2024-01-30T15:44:13;7.10;1.00
10443;DHT22;5269;51.146;16.986;2024-01-30T15:46:40;7.00;1.00
10443;DHT22;5269;51.146;16.986;2024-01-30T15:49:11;7.00;1.00
10443;DHT22;5269;51.146;16.986;2024-01-30T15:51:41;6.90;1.00
10443;DHT22;5269;51.146;16.986;2024-01-30T15:54:12;6.90;1.00
10443;DHT22;5269;51.146;16.986;2024-01-30T15:56:40;6.80;1.00
10443;DHT22;5269;51.146;16.986;2024-01-30T15:59:07;6.70;1.00
10443;DHT22;5269;51.146;16.986;2024-01-30T16:01:34;6.60;1.00
10443;DHT22;5269;51.146;16.986;2024-01-30T16:04:05;6.50;1.00
10443;DHT22;5269;51.146;16.986;2024-01-30T16:06:32;6.30;1.00
10443;DHT22;5269;51.146;16.986;2024-01-30T16:09:02;6.20;1.00
10443;DHT22;5269;51.146;16.986;2024-01-30T16:11:31;6.10;1.00
10443;DHT22;5269;51.146;16.986;2024-01-30T16:14:00;6.10;45.30